Steeple Claydon, United Kingdom
Current Conditions -  °F | °C
As of 10:20 PM on Sunday 25 Jan 2015 (Local Time) from EGTK Reporting Station
Overcast Overcast  
Wind Chill: 41°   Ceiling: 500
Heat Index: 46°   Visibility: 6mi
Dew Point: 46°   Wind: 10mph
Humidity: 100%   Direction: 240°WSW
Pressure: 30.24"   Gusts: NA
Location:  51.94°N, 0.98°W
Report Text: EGTK 252220Z 24009KT 9999 OVC005 08/08 Q1024
Loading
Personal Weather Stations






























Interactive Weather Map New forecast layout! Learn more

10-Day Weather Forecast

Advertisements
Track Severe Weather on mobile